Accueil
METAR-TAF:

METAR-TAF

Aéroports :

Aéroport de Figari Sud Corse

Figari, France

latitude: 41-30N, longitude: 009-06E, altitude: 26 m

Observation

Le bulletin a été fait il y a 15 minutes, à 23:00 UTC
Vent 6 kt de est
Température 24°C
Humidité 89%
Pression 1018 hPa
Visibilité 10 km ou plus

METAR: LFKF 222300Z AUTO 08006KT 9999 ///CB 24/22 Q1018

Heure: 01:15 (23:15 UTC)

Prévision

Le bulletin a été fait il y a 9 heures et 15 minutes, à 14:00 UTC
Prévision valable du 22 à 15 UTC au 23 à 15 UTC
Vent 8 kt de est/nord-est
Visibilité 10 km ou plus
Nuages épars à une hauteur de 3000 ft
Nuages fragmentés à une hauteur de 15000 ft
Probabilité 40% :
Temporairement
du 22 à 15 UTC au 23 à 15 UTC
Nuages épars à une hauteur de 2000 ft, Cumulonimbus.
Nuages fragmentés à une hauteur de 3300 ft
orage, pluie

TAF: LFKF 221400Z 2215/2315 06008KT 9999 SCT030 BKN150 PROB40 TEMPO 2215/2315 TSRA SCT020CB BKN033

Observations et prévisions météorologiques de plus de 4000 aéroports (messages METAR et TAF).

Les stations disponibles sont représentées par des disques jaunes et rouges sur la carte.

Passer la souris dessus pour voir le nom de la station.

Cliquer dessus pour voir les observations et prévisions météorologiques.

Pour changer de carte: cliquez sur les boutons verts avec une croix noire pour zoomer, sur le bouton vert avec un tiret pour effectuer un zoom arrière, ou sur les flèches vertes pour les cartes adjacentes.


METAR-TAF: